sensor_id;sensor_type;location;lat;lon;timestamp;P1;durP1;ratioP1;P2;durP2;ratioP2
8331;SDS011;4203;48.144;14.118;2023-11-21T00:00:42;10.50;;;5.90;;
8331;SDS011;4203;48.144;14.118;2023-11-21T00:03:12;9.43;;;5.97;;
8331;SDS011;4203;48.144;14.118;2023-11-21T00:05:40;13.63;;;6.23;;
8331;SDS011;4203;48.144;14.118;2023-11-21T00:08:07;10.43;;;6.83;;
8331;SDS011;4203;48.144;14.118;2023-11-21T00:10:35;10.30;;;6.50;;
8331;SDS011;4203;48.144;14.118;2023-11-21T00:13:05;7.40;;;4.97;;
8331;SDS011;4203;48.144;14.118;2023-11-21T00:15:32;8.17;;;4.10;;
8331;SDS011;4203;48.144;14.118;2023-11-21T00:18:00;5.93;;;4.10;;
8331;SDS011;4203;48.144;14.118;2023-11-21T00:20:27;5.27;;;4.40;;
8331;SDS011;4203;48.144;14.118;2023-11-21T00:22:54;5.40;;;4.50;;
8331;SDS011;4203;48.144;14.118;2023-11-21T00:25:21;8.03;;;4.53;;
8331;SDS011;4203;48.144;14.118;2023-11-21T00:27:50;7.03;;;4.87;;
8331;SDS011;4203;48.144;14.118;2023-11-21T00:30:18;6.00;;;3.97;;
8331;SDS011;4203;48.144;14.118;2023-11-21T00:32:48;6.03;;;4.10;;
8331;SDS011;4203;48.144;14.118;2023-11-21T00:35:15;7.00;;;4.57;;
8331;SDS011;4203;48.144;14.118;2023-11-21T00:37:42;6.63;;;4.13;;
8331;SDS011;4203;48.144;14.118;2023-11-21T00:40:10;5.63;;;3.83;;
8331;SDS011;4203;48.144;14.118;2023-11-21T00:42:40;6.10;;;3.90;;
8331;SDS011;4203;48.144;14.118;2023-11-21T00:45:08;7.40;;;4.63;;
8331;SDS011;4203;48.144;14.118;2023-11-21T00:47:37;7.13;;;4.60;;
8331;SDS011;4203;48.144;14.118;2023-11-21T00:50:05;5.03;;;4.27;;
8331;SDS011;4203;48.144;14.118;2023-11-21T00:52:33;6.27;;;4.53;;
8331;SDS011;4203;48.144;14.118;2023-11-21T00:55:01;5.00;;;4.17;;
8331;SDS011;4203;48.144;14.118;2023-11-21T00:57:28;4.97;;;4.50;;
8331;SDS011;4203;48.144;14.118;2023-11-21T00:59:55;8.40;;;3.73;;
8331;SDS011;4203;48.144;14.118;2023-11-21T01:02:22;5.23;;;4.03;;
8331;SDS011;4203;48.144;14.118;2023-11-21T01:04:51;6.57;;;4.23;;
8331;SDS011;4203;48.144;14.118;2023-11-21T01:07:19;7.37;;;4.20;;
8331;SDS011;4203;48.144;14.118;2023-11-21T01:09:47;4.50;;;4.03;;
8331;SDS011;4203;48.144;14.118;2023-11-21T01:12:14;4.50;;;4.10;;
8331;SDS011;4203;48.144;14.118;2023-11-21T01:14:42;5.97;;;4.00;;
8331;SDS011;4203;48.144;14.118;2023-11-21T01:17:10;5.10;;;4.60;;
8331;SDS011;4203;48.144;14.118;2023-11-21T01:19:37;5.73;;;4.10;;
8331;SDS011;4203;48.144;14.118;2023-11-21T01:22:06;6.83;;;4.60;;
8331;SDS011;4203;48.144;14.118;2023-11-21T01:24:34;6.97;;;4.70;;
8331;SDS011;4203;48.144;14.118;2023-11-21T01:27:02;4.50;;;4.10;;
8331;SDS011;4203;48.144;14.118;2023-11-21T01:29:36;7.13;;;4.13;;
8331;SDS011;4203;48.144;14.118;2023-11-21T01:32:03;5.07;;;4.17;;
8331;SDS011;4203;48.144;14.118;2023-11-21T01:34:33;4.00;;;3.60;;
8331;SDS011;4203;48.144;14.118;2023-11-21T01:37:00;7.37;;;4.30;;
8331;SDS011;4203;48.144;14.118;2023-11-21T01:39:31;5.60;;;4.10;;
8331;SDS011;4203;48.144;14.118;2023-11-21T01:41:58;5.43;;;4.17;;
8331;SDS011;4203;48.144;14.118;2023-11-21T01:47:12;6.77;;;4.20;;
8331;SDS011;4203;48.144;14.118;2023-11-21T01:49:40;3.90;;;3.47;;
8331;SDS011;4203;48.144;14.118;2023-11-21T01:52:11;4.77;;;4.07;;
8331;SDS011;4203;48.144;14.118;2023-11-21T01:54:41;5.13;;;3.93;;
8331;SDS011;4203;48.144;14.118;2023-11-21T01:57:08;4.17;;;3.60;;
8331;SDS011;4203;48.144;14.118;2023-11-21T01:59:36;3.77;;;3.20;;
8331;SDS011;4203;48.144;14.118;2023-11-21T02:02:04;4.73;;;3.53;;
8331;SDS011;4203;48.144;14.118;2023-11-21T02:04:33;3.53;;;3.20;;
8331;SDS011;4203;48.144;14.118;2023-11-21T02:07:01;3.63;;;3.33;;
8331;SDS011;4203;48.144;14.118;2023-11-21T02:09:30;4.37;;;3.20;;
8331;SDS011;4203;48.144;14.118;2023-11-21T02:11:59;4.70;;;3.27;;
8331;SDS011;4203;48.144;14.118;2023-11-21T02:14:28;4.30;;;3.30;;
8331;SDS011;4203;48.144;14.118;2023-11-21T02:16:58;3.90;;;3.50;;
8331;SDS011;4203;48.144;14.118;2023-11-21T02:19:26;4.00;;;3.60;;
8331;SDS011;4203;48.144;14.118;2023-11-21T02:21:55;4.10;;;3.70;;
8331;SDS011;4203;48.144;14.118;2023-11-21T02:24:29;6.83;;;3.33;;
8331;SDS011;4203;48.144;14.118;2023-11-21T02:26:57;3.83;;;3.43;;
8331;SDS011;4203;48.144;14.118;2023-11-21T02:29:25;4.17;;;3.20;;
8331;SDS011;4203;48.144;14.118;2023-11-21T02:31:53;3.70;;;3.40;;
8331;SDS011;4203;48.144;14.118;2023-11-21T02:34:21;3.80;;;2.90;;
8331;SDS011;4203;48.144;14.118;2023-11-21T02:36:50;3.90;;;2.87;;
8331;SDS011;4203;48.144;14.118;2023-11-21T02:39:17;5.17;;;3.67;;
8331;SDS011;4203;48.144;14.118;2023-11-21T02:41:48;3.40;;;3.10;;
8331;SDS011;4203;48.144;14.118;2023-11-21T02:44:18;4.10;;;3.80;;
8331;SDS011;4203;48.144;14.118;2023-11-21T02:46:45;7.50;;;3.87;;
8331;SDS011;4203;48.144;14.118;2023-11-21T02:49:12;4.27;;;3.77;;
8331;SDS011;4203;48.144;14.118;2023-11-21T02:51:40;3.97;;;3.67;;
8331;SDS011;4203;48.144;14.118;2023-11-21T02:54:07;4.13;;;3.80;;
8331;SDS011;4203;48.144;14.118;2023-11-21T02:56:35;4.50;;;4.10;;
8331;SDS011;4203;48.144;14.118;2023-11-21T02:59:04;5.23;;;4.03;;
8331;SDS011;4203;48.144;14.118;2023-11-21T03:01:31;5.50;;;4.93;;
8331;SDS011;4203;48.144;14.118;2023-11-21T03:03:59;6.70;;;4.13;;
8331;SDS011;4203;48.144;14.118;2023-11-21T03:06:26;5.20;;;4.73;;
8331;SDS011;4203;48.144;14.118;2023-11-21T03:08:54;5.73;;;4.50;;
8331;SDS011;4203;48.144;14.118;2023-11-21T03:11:21;4.40;;;3.97;;
8331;SDS011;4203;48.144;14.118;2023-11-21T03:13:48;3.70;;;3.07;;
8331;SDS011;4203;48.144;14.118;2023-11-21T03:16:17;3.83;;;3.43;;
8331;SDS011;4203;48.144;14.118;2023-11-21T03:18:45;3.90;;;3.60;;
8331;SDS011;4203;48.144;14.118;2023-11-21T03:21:12;4.00;;;3.40;;
8331;SDS011;4203;48.144;14.118;2023-11-21T03:23:40;3.73;;;3.43;;
8331;SDS011;4203;48.144;14.118;2023-11-21T03:26:11;3.97;;;3.57;;
8331;SDS011;4203;48.144;14.118;2023-11-21T03:28:39;3.80;;;3.40;;
8331;SDS011;4203;48.144;14.118;2023-11-21T03:31:06;3.90;;;3.47;;
8331;SDS011;4203;48.144;14.118;2023-11-21T03:33:35;4.43;;;3.90;;
8331;SDS011;4203;48.144;14.118;2023-11-21T03:36:02;3.60;;;3.20;;
8331;SDS011;4203;48.144;14.118;2023-11-21T03:38:30;4.73;;;3.43;;
8331;SDS011;4203;48.144;14.118;2023-11-21T03:40:57;4.30;;;3.60;;
8331;SDS011;4203;48.144;14.118;2023-11-21T03:43:25;7.83;;;3.63;;
8331;SDS011;4203;48.144;14.118;2023-11-21T03:45:53;6.73;;;3.43;;
8331;SDS011;4203;48.144;14.118;2023-11-21T03:48:20;2.83;;;2.60;;
8331;SDS011;4203;48.144;14.118;2023-11-21T03:50:49;4.80;;;3.20;;
8331;SDS011;4203;48.144;14.118;2023-11-21T03:53:16;3.60;;;3.27;;
8331;SDS011;4203;48.144;14.118;2023-11-21T03:55:44;3.60;;;2.77;;
8331;SDS011;4203;48.144;14.118;2023-11-21T03:58:11;3.83;;;2.87;;
8331;SDS011;4203;48.144;14.118;2023-11-21T04:00:38;3.60;;;3.07;;
8331;SDS011;4203;48.144;14.118;2023-11-21T04:03:08;4.47;;;3.00;;
8331;SDS011;4203;48.144;14.118;2023-11-21T04:05:35;3.53;;;3.23;;
8331;SDS011;4203;48.144;14.118;2023-11-21T04:08:04;2.90;;;2.70;;
8331;SDS011;4203;48.144;14.118;2023-11-21T04:10:31;3.13;;;2.83;;
8331;SDS011;4203;48.144;14.118;2023-11-21T04:12:59;3.87;;;2.90;;
8331;SDS011;4203;48.144;14.118;2023-11-21T04:15:27;4.30;;;3.03;;
8331;SDS011;4203;48.144;14.118;2023-11-21T04:17:54;3.93;;;2.90;;
8331;SDS011;4203;48.144;14.118;2023-11-21T04:20:21;3.00;;;2.60;;
8331;SDS011;4203;48.144;14.118;2023-11-21T04:22:49;3.33;;;3.00;;
8331;SDS011;4203;48.144;14.118;2023-11-21T04:25:17;3.03;;;2.73;;
8331;SDS011;4203;48.144;14.118;2023-11-21T04:27:45;6.57;;;2.50;;
8331;SDS011;4203;48.144;14.118;2023-11-21T04:30:13;3.37;;;2.60;;
8331;SDS011;4203;48.144;14.118;2023-11-21T04:32:41;5.07;;;2.73;;
8331;SDS011;4203;48.144;14.118;2023-11-21T04:35:08;3.10;;;2.77;;
8331;SDS011;4203;48.144;14.118;2023-11-21T04:37:35;6.80;;;2.90;;
8331;SDS011;4203;48.144;14.118;2023-11-21T04:40:03;3.47;;;2.83;;
8331;SDS011;4203;48.144;14.118;2023-11-21T04:42:34;5.00;;;2.40;;
8331;SDS011;4203;48.144;14.118;2023-11-21T04:45:02;7.93;;;2.63;;
8331;SDS011;4203;48.144;14.118;2023-11-21T04:47:34;3.73;;;2.97;;
8331;SDS011;4203;48.144;14.118;2023-11-21T04:50:01;3.80;;;2.77;;
8331;SDS011;4203;48.144;14.118;2023-11-21T04:52:30;5.60;;;2.63;;
8331;SDS011;4203;48.144;14.118;2023-11-21T04:55:02;3.73;;;2.50;;
8331;SDS011;4203;48.144;14.118;2023-11-21T04:57:36;7.10;;;2.50;;
8331;SDS011;4203;48.144;14.118;2023-11-21T05:00:03;5.40;;;2.80;;
8331;SDS011;4203;48.144;14.118;2023-11-21T05:02:31;3.93;;;2.27;;
8331;SDS011;4203;48.144;14.118;2023-11-21T05:05:00;6.63;;;2.70;;
8331;SDS011;4203;48.144;14.118;2023-11-21T05:07:27;5.77;;;2.50;;
8331;SDS011;4203;48.144;14.118;2023-11-21T05:09:55;2.80;;;2.60;;
8331;SDS011;4203;48.144;14.118;2023-11-21T05:12:22;3.87;;;2.50;;
8331;SDS011;4203;48.144;14.118;2023-11-21T05:14:52;4.53;;;2.80;;
8331;SDS011;4203;48.144;14.118;2023-11-21T05:17:19;3.10;;;2.80;;
8331;SDS011;4203;48.144;14.118;2023-11-21T05:19:47;5.07;;;2.30;;
8331;SDS011;4203;48.144;14.118;2023-11-21T05:22:14;3.70;;;2.70;;
8331;SDS011;4203;48.144;14.118;2023-11-21T05:24:41;4.00;;;2.67;;
8331;SDS011;4203;48.144;14.118;2023-11-21T05:27:09;2.70;;;2.50;;
8331;SDS011;4203;48.144;14.118;2023-11-21T05:29:38;3.17;;;2.40;;
8331;SDS011;4203;48.144;14.118;2023-11-21T05:32:06;4.80;;;2.63;;
8331;SDS011;4203;48.144;14.118;2023-11-21T05:34:34;3.13;;;2.50;;
8331;SDS011;4203;48.144;14.118;2023-11-21T05:37:01;4.43;;;2.53;;
8331;SDS011;4203;48.144;14.118;2023-11-21T05:39:30;3.67;;;1.97;;
8331;SDS011;4203;48.144;14.118;2023-11-21T05:41:58;4.53;;;2.40;;
8331;SDS011;4203;48.144;14.118;2023-11-21T05:44:29;3.10;;;2.80;;
8331;SDS011;4203;48.144;14.118;2023-11-21T05:46:56;3.00;;;2.40;;
8331;SDS011;4203;48.144;14.118;2023-11-21T05:49:26;3.50;;;2.83;;
8331;SDS011;4203;48.144;14.118;2023-11-21T05:51:55;2.50;;;2.23;;
8331;SDS011;4203;48.144;14.118;2023-11-21T05:54:22;5.33;;;2.80;;
8331;SDS011;4203;48.144;14.118;2023-11-21T05:56:50;3.00;;;2.70;;
8331;SDS011;4203;48.144;14.118;2023-11-21T05:59:17;3.77;;;3.00;;
8331;SDS011;4203;48.144;14.118;2023-11-21T06:01:45;3.83;;;2.70;;
8331;SDS011;4203;48.144;14.118;2023-11-21T06:04:12;3.90;;;2.80;;
8331;SDS011;4203;48.144;14.118;2023-11-21T06:06:41;3.90;;;3.60;;
8331;SDS011;4203;48.144;14.118;2023-11-21T06:09:09;5.57;;;3.80;;
8331;SDS011;4203;48.144;14.118;2023-11-21T06:11:37;5.13;;;3.20;;
8331;SDS011;4203;48.144;14.118;2023-11-21T06:14:04;3.60;;;2.90;;
8331;SDS011;4203;48.144;14.118;2023-11-21T06:16:33;7.87;;;2.83;;
8331;SDS011;4203;48.144;14.118;2023-11-21T06:19:00;3.23;;;2.90;;
8331;SDS011;4203;48.144;14.118;2023-11-21T06:21:27;6.80;;;3.10;;
8331;SDS011;4203;48.144;14.118;2023-11-21T06:23:56;4.23;;;3.27;;
8331;SDS011;4203;48.144;14.118;2023-11-21T06:26:23;3.30;;;2.90;;
8331;SDS011;4203;48.144;14.118;2023-11-21T06:28:51;5.17;;;3.33;;
8331;SDS011;4203;48.144;14.118;2023-11-21T06:31:19;4.47;;;3.37;;
8331;SDS011;4203;48.144;14.118;2023-11-21T06:33:47;3.93;;;3.10;;
8331;SDS011;4203;48.144;14.118;2023-11-21T06:36:15;4.67;;;2.90;;
8331;SDS011;4203;48.144;14.118;2023-11-21T06:38:42;6.00;;;3.73;;
8331;SDS011;4203;48.144;14.118;2023-11-21T06:41:12;2.83;;;2.63;;
8331;SDS011;4203;48.144;14.118;2023-11-21T06:43:40;4.00;;;3.63;;
8331;SDS011;4203;48.144;14.118;2023-11-21T06:46:11;5.80;;;3.47;;
8331;SDS011;4203;48.144;14.118;2023-11-21T06:48:40;3.47;;;3.00;;
8331;SDS011;4203;48.144;14.118;2023-11-21T06:51:08;3.53;;;3.10;;
8331;SDS011;4203;48.144;14.118;2023-11-21T06:53:36;4.10;;;3.47;;
8331;SDS011;4203;48.144;14.118;2023-11-21T06:56:04;4.90;;;3.00;;
8331;SDS011;4203;48.144;14.118;2023-11-21T06:58:33;4.70;;;3.47;;
8331;SDS011;4203;48.144;14.118;2023-11-21T07:01:01;4.87;;;3.97;;
8331;SDS011;4203;48.144;14.118;2023-11-21T07:03:28;3.43;;;3.23;;
8331;SDS011;4203;48.144;14.118;2023-11-21T07:05:55;7.53;;;3.97;;
8331;SDS011;4203;48.144;14.118;2023-11-21T07:08:22;6.07;;;4.43;;
8331;SDS011;4203;48.144;14.118;2023-11-21T07:10:50;7.13;;;3.57;;
8331;SDS011;4203;48.144;14.118;2023-11-21T07:13:18;7.17;;;3.37;;
8331;SDS011;4203;48.144;14.118;2023-11-21T07:15:48;4.57;;;3.27;;
8331;SDS011;4203;48.144;14.118;2023-11-21T07:18:16;5.23;;;3.17;;
8331;SDS011;4203;48.144;14.118;2023-11-21T07:20:57;4.43;;;2.83;;
8331;SDS011;4203;48.144;14.118;2023-11-21T07:23:24;6.37;;;3.90;;
8331;SDS011;4203;48.144;14.118;2023-11-21T07:25:51;8.27;;;6.23;;
8331;SDS011;4203;48.144;14.118;2023-11-21T07:28:19;18.47;;;14.03;;
8331;SDS011;4203;48.144;14.118;2023-11-21T07:30:47;25.67;;;20.10;;
8331;SDS011;4203;48.144;14.118;2023-11-21T07:33:15;21.47;;;16.30;;
8331;SDS011;4203;48.144;14.118;2023-11-21T07:35:42;26.97;;;19.70;;
8331;SDS011;4203;48.144;14.118;2023-11-21T07:38:10;26.43;;;18.67;;
8331;SDS011;4203;48.144;14.118;2023-11-21T07:40:38;48.37;;;37.40;;
8331;SDS011;4203;48.144;14.118;2023-11-21T07:43:05;52.97;;;39.47;;
8331;SDS011;4203;48.144;14.118;2023-11-21T07:45:32;32.10;;;25.07;;
8331;SDS011;4203;48.144;14.118;2023-11-21T07:48:01;29.00;;;21.97;;
8331;SDS011;4203;48.144;14.118;2023-11-21T07:50:30;17.20;;;13.40;;
8331;SDS011;4203;48.144;14.118;2023-11-21T07:52:57;13.77;;;9.70;;
8331;SDS011;4203;48.144;14.118;2023-11-21T07:55:24;11.30;;;7.73;;
8331;SDS011;4203;48.144;14.118;2023-11-21T07:57:52;19.43;;;13.70;;
8331;SDS011;4203;48.144;14.118;2023-11-21T08:00:19;7.33;;;5.37;;
8331;SDS011;4203;48.144;14.118;2023-11-21T08:02:46;5.90;;;5.40;;
8331;SDS011;4203;48.144;14.118;2023-11-21T08:05:15;6.60;;;3.80;;
8331;SDS011;4203;48.144;14.118;2023-11-21T08:07:42;4.90;;;2.80;;
8331;SDS011;4203;48.144;14.118;2023-11-21T08:10:09;3.20;;;2.90;;
8331;SDS011;4203;48.144;14.118;2023-11-21T08:12:37;4.37;;;2.47;;
8331;SDS011;4203;48.144;14.118;2023-11-21T08:15:05;3.87;;;2.13;;
8331;SDS011;4203;48.144;14.118;2023-11-21T08:17:33;5.80;;;2.50;;
8331;SDS011;4203;48.144;14.118;2023-11-21T08:20:01;2.90;;;2.70;;
8331;SDS011;4203;48.144;14.118;2023-11-21T08:22:30;3.30;;;2.00;;
8331;SDS011;4203;48.144;14.118;2023-11-21T08:24:58;3.22;;;2.10;;
8331;SDS011;4203;48.144;14.118;2023-11-21T08:27:26;4.50;;;2.03;;
8331;SDS011;4203;48.144;14.118;2023-11-21T08:29:53;8.93;;;2.13;;
8331;SDS011;4203;48.144;14.118;2023-11-21T08:32:21;3.72;;;1.95;;
8331;SDS011;4203;48.144;14.118;2023-11-21T08:34:48;3.07;;;2.13;;
8331;SDS011;4203;48.144;14.118;2023-11-21T08:37:16;3.67;;;2.33;;
8331;SDS011;4203;48.144;14.118;2023-11-21T08:39:45;2.93;;;1.90;;
8331;SDS011;4203;48.144;14.118;2023-11-21T08:42:13;2.47;;;2.20;;
8331;SDS011;4203;48.144;14.118;2023-11-21T08:44:40;3.40;;;2.00;;
8331;SDS011;4203;48.144;14.118;2023-11-21T08:47:08;3.60;;;2.05;;
8331;SDS011;4203;48.144;14.118;2023-11-21T08:49:35;4.20;;;1.90;;
8331;SDS011;4203;48.144;14.118;2023-11-21T08:52:03;3.67;;;1.73;;
8331;SDS011;4203;48.144;14.118;2023-11-21T08:54:31;4.50;;;2.15;;
8331;SDS011;4203;48.144;14.118;2023-11-21T08:57:00;4.57;;;2.47;;
8331;SDS011;4203;48.144;14.118;2023-11-21T08:59:28;4.30;;;2.20;;
8331;SDS011;4203;48.144;14.118;2023-11-21T09:01:55;3.75;;;2.38;;
8331;SDS011;4203;48.144;14.118;2023-11-21T09:04:22;2.28;;;2.17;;
8331;SDS011;4203;48.144;14.118;2023-11-21T09:06:50;2.92;;;1.77;;
8331;SDS011;4203;48.144;14.118;2023-11-21T09:09:17;2.40;;;2.20;;
8331;SDS011;4203;48.144;14.118;2023-11-21T09:11:44;3.05;;;1.80;;
8331;SDS011;4203;48.144;14.118;2023-11-21T09:14:15;5.35;;;1.77;;
8331;SDS011;4203;48.144;14.118;2023-11-21T09:16:43;4.50;;;1.83;;
8331;SDS011;4203;48.144;14.118;2023-11-21T09:19:10;2.72;;;2.05;;
8331;SDS011;4203;48.144;14.118;2023-11-21T09:21:39;3.28;;;1.60;;
8331;SDS011;4203;48.144;14.118;2023-11-21T09:24:06;3.80;;;1.85;;
8331;SDS011;4203;48.144;14.118;2023-11-21T09:26:34;3.35;;;2.00;;
8331;SDS011;4203;48.144;14.118;2023-11-21T09:29:02;2.88;;;1.63;;
8331;SDS011;4203;48.144;14.118;2023-11-21T09:31:30;4.25;;;1.70;;
8331;SDS011;4203;48.144;14.118;2023-11-21T09:33:58;1.48;;;1.10;;
8331;SDS011;4203;48.144;14.118;2023-11-21T09:36:27;3.05;;;2.00;;
8331;SDS011;4203;48.144;14.118;2023-11-21T09:38:56;2.97;;;1.77;;
8331;SDS011;4203;48.144;14.118;2023-11-21T09:41:40;1.77;;;1.60;;
8331;SDS011;4203;48.144;14.118;2023-11-21T09:44:32;4.32;;;1.80;;
8331;SDS011;4203;48.144;14.118;2023-11-21T09:47:19;3.50;;;2.10;;
8331;SDS011;4203;48.144;14.118;2023-11-21T09:49:48;2.65;;;2.42;;
8331;SDS011;4203;48.144;14.118;2023-11-21T09:52:17;1.92;;;1.75;;
8331;SDS011;4203;48.144;14.118;2023-11-21T09:54:50;2.90;;;2.38;;
8331;SDS011;4203;48.144;14.118;2023-11-21T09:57:21;2.05;;;1.92;;
8331;SDS011;4203;48.144;14.118;2023-11-21T09:59:56;2.10;;;1.77;;
8331;SDS011;4203;48.144;14.118;2023-11-21T10:02:38;2.80;;;1.60;;
8331;SDS011;4203;48.144;14.118;2023-11-21T10:05:06;4.43;;;1.92;;
8331;SDS011;4203;48.144;14.118;2023-11-21T10:07:35;2.17;;;1.85;;
8331;SDS011;4203;48.144;14.118;2023-11-21T10:10:03;2.53;;;2.10;;
8331;SDS011;4203;48.144;14.118;2023-11-21T10:12:31;3.63;;;1.70;;
8331;SDS011;4203;48.144;14.118;2023-11-21T10:15:05;2.10;;;1.80;;
8331;SDS011;4203;48.144;14.118;2023-11-21T10:17:39;3.03;;;2.00;;
8331;SDS011;4203;48.144;14.118;2023-11-21T10:20:14;2.00;;;1.90;;
8331;SDS011;4203;48.144;14.118;2023-11-21T10:22:47;2.03;;;1.92;;
8331;SDS011;4203;48.144;14.118;2023-11-21T10:25:17;1.85;;;1.70;;
8331;SDS011;4203;48.144;14.118;2023-11-21T10:27:47;2.17;;;1.95;;
8331;SDS011;4203;48.144;14.118;2023-11-21T10:30:16;2.08;;;1.90;;
8331;SDS011;4203;48.144;14.118;2023-11-21T10:32:55;2.63;;;1.67;;
8331;SDS011;4203;48.144;14.118;2023-11-21T10:35:33;3.35;;;1.75;;
8331;SDS011;4203;48.144;14.118;2023-11-21T10:38:07;3.05;;;1.77;;
8331;SDS011;4203;48.144;14.118;2023-11-21T10:40:38;3.33;;;1.93;;
8331;SDS011;4203;48.144;14.118;2023-11-21T10:43:16;3.20;;;1.80;;
8331;SDS011;4203;48.144;14.118;2023-11-21T10:45:45;2.10;;;1.90;;
8331;SDS011;4203;48.144;14.118;2023-11-21T10:48:14;3.00;;;2.30;;
8331;SDS011;4203;48.144;14.118;2023-11-21T10:50:42;5.28;;;2.20;;
8331;SDS011;4203;48.144;14.118;2023-11-21T10:53:09;2.03;;;1.92;;
8331;SDS011;4203;48.144;14.118;2023-11-21T10:55:38;2.33;;;2.22;;
8331;SDS011;4203;48.144;14.118;2023-11-21T10:58:23;2.78;;;2.30;;
8331;SDS011;4203;48.144;14.118;2023-11-21T11:00:50;1.83;;;1.73;;
8331;SDS011;4203;48.144;14.118;2023-11-21T11:03:19;1.70;;;1.60;;
8331;SDS011;4203;48.144;14.118;2023-11-21T11:05:48;1.67;;;1.50;;
8331;SDS011;4203;48.144;14.118;2023-11-21T11:08:18;2.05;;;1.77;;
8331;SDS011;4203;48.144;14.118;2023-11-21T11:10:54;3.38;;;2.80;;
8331;SDS011;4203;48.144;14.118;2023-11-21T11:13:27;2.38;;;1.83;;
8331;SDS011;4203;48.144;14.118;2023-11-21T11:15:57;1.90;;;1.70;;
8331;SDS011;4203;48.144;14.118;2023-11-21T11:18:28;3.85;;;1.77;;
8331;SDS011;4203;48.144;14.118;2023-11-21T11:20:58;1.83;;;1.73;;
8331;SDS011;4203;48.144;14.118;2023-11-21T11:23:45;5.63;;;2.20;;
8331;SDS011;4203;48.144;14.118;2023-11-21T11:26:23;2.17;;;1.70;;
8331;SDS011;4203;48.144;14.118;2023-11-21T11:29:00;1.75;;;1.65;;
8331;SDS011;4203;48.144;14.118;2023-11-21T11:31:37;1.73;;;1.60;;
8331;SDS011;4203;48.144;14.118;2023-11-21T11:34:19;2.35;;;1.73;;
8331;SDS011;4203;48.144;14.118;2023-11-21T11:36:54;1.50;;;1.50;;
8331;SDS011;4203;48.144;14.118;2023-11-21T11:39:27;1.98;;;1.75;;
8331;SDS011;4203;48.144;14.118;2023-11-21T11:41:56;5.60;;;1.80;;
8331;SDS011;4203;48.144;14.118;2023-11-21T11:47:16;1.65;;;1.65;;
8331;SDS011;4203;48.144;14.118;2023-11-21T11:49:56;1.98;;;1.88;;
8331;SDS011;4203;48.144;14.118;2023-11-21T11:52:32;2.00;;;1.90;;
8331;SDS011;4203;48.144;14.118;2023-11-21T11:55:07;2.58;;;2.38;;
8331;SDS011;4203;48.144;14.118;2023-11-21T11:57:40;2.65;;;2.00;;
8331;SDS011;4203;48.144;14.118;2023-11-21T12:00:09;2.75;;;1.80;;
8331;SDS011;4203;48.144;14.118;2023-11-21T12:02:37;1.65;;;1.55;;
8331;SDS011;4203;48.144;14.118;2023-11-21T12:05:11;2.60;;;1.58;;
8331;SDS011;4203;48.144;14.118;2023-11-21T12:07:43;1.98;;;1.75;;
8331;SDS011;4203;48.144;14.118;2023-11-21T12:10:14;2.38;;;1.67;;
8331;SDS011;4203;48.144;14.118;2023-11-21T12:12:44;2.75;;;1.88;;
8331;SDS011;4203;48.144;14.118;2023-11-21T12:15:13;3.25;;;1.60;;
8331;SDS011;4203;48.144;14.118;2023-11-21T12:17:41;2.13;;;2.03;;
8331;SDS011;4203;48.144;14.118;2023-11-21T12:20:11;1.93;;;1.70;;
8331;SDS011;4203;48.144;14.118;2023-11-21T12:22:44;2.15;;;1.85;;
8331;SDS011;4203;48.144;14.118;2023-11-21T12:25:14;1.48;;;1.48;;
8331;SDS011;4203;48.144;14.118;2023-11-21T12:27:44;1.75;;;1.50;;
8331;SDS011;4203;48.144;14.118;2023-11-21T12:30:14;1.75;;;1.75;;
8331;SDS011;4203;48.144;14.118;2023-11-21T12:32:43;1.60;;;1.55;;
8331;SDS011;4203;48.144;14.118;2023-11-21T12:35:13;2.60;;;1.65;;
8331;SDS011;4203;48.144;14.118;2023-11-21T12:37:44;1.60;;;1.60;;
8331;SDS011;4203;48.144;14.118;2023-11-21T12:40:12;2.30;;;2.15;;
8331;SDS011;4203;48.144;14.118;2023-11-21T12:42:42;2.10;;;1.93;;
8331;SDS011;4203;48.144;14.118;2023-11-21T12:45:18;2.47;;;2.00;;
8331;SDS011;4203;48.144;14.118;2023-11-21T12:47:46;2.30;;;2.20;;
8331;SDS011;4203;48.144;14.118;2023-11-21T12:50:16;2.13;;;2.00;;
8331;SDS011;4203;48.144;14.118;2023-11-21T12:52:48;2.10;;;2.00;;
8331;SDS011;4203;48.144;14.118;2023-11-21T12:55:19;2.00;;;1.90;;
8331;SDS011;4203;48.144;14.118;2023-11-21T12:57:47;1.88;;;1.77;;
8331;SDS011;4203;48.144;14.118;2023-11-21T13:00:17;4.57;;;3.42;;
8331;SDS011;4203;48.144;14.118;2023-11-21T13:02:53;3.30;;;3.00;;
8331;SDS011;4203;48.144;14.118;2023-11-21T13:05:29;2.22;;;2.08;;
8331;SDS011;4203;48.144;14.118;2023-11-21T13:08:00;2.03;;;1.92;;
8331;SDS011;4203;48.144;14.118;2023-11-21T13:10:31;1.67;;;1.60;;
8331;SDS011;4203;48.144;14.118;2023-11-21T13:13:01;2.00;;;1.90;;
8331;SDS011;4203;48.144;14.118;2023-11-21T13:15:33;2.00;;;1.90;;
8331;SDS011;4203;48.144;14.118;2023-11-21T13:18:01;2.38;;;1.50;;
8331;SDS011;4203;48.144;14.118;2023-11-21T13:20:30;1.42;;;1.42;;
8331;SDS011;4203;48.144;14.118;2023-11-21T13:22:57;2.35;;;2.05;;
8331;SDS011;4203;48.144;14.118;2023-11-21T13:25:26;2.45;;;2.20;;
8331;SDS011;4203;48.144;14.118;2023-11-21T13:27:54;2.25;;;1.70;;
8331;SDS011;4203;48.144;14.118;2023-11-21T13:30:21;1.50;;;1.50;;
8331;SDS011;4203;48.144;14.118;2023-11-21T13:32:52;2.78;;;1.50;;
8331;SDS011;4203;48.144;14.118;2023-11-21T13:35:22;2.00;;;1.90;;
8331;SDS011;4203;48.144;14.118;2023-11-21T13:37:57;1.70;;;1.60;;
8331;SDS011;4203;48.144;14.118;2023-11-21T13:40:31;1.98;;;1.88;;
8331;SDS011;4203;48.144;14.118;2023-11-21T13:43:05;2.22;;;1.77;;
8331;SDS011;4203;48.144;14.118;2023-11-21T13:45:35;1.70;;;1.60;;
8331;SDS011;4203;48.144;14.118;2023-11-21T13:48:04;1.67;;;1.58;;
8331;SDS011;4203;48.144;14.118;2023-11-21T13:50:35;1.27;;;1.27;;
8331;SDS011;4203;48.144;14.118;2023-11-21T13:53:04;1.95;;;1.83;;
8331;SDS011;4203;48.144;14.118;2023-11-21T13:55:41;1.55;;;1.52;;
8331;SDS011;4203;48.144;14.118;2023-11-21T13:58:08;1.55;;;1.45;;
8331;SDS011;4203;48.144;14.118;2023-11-21T14:00:48;1.40;;;1.40;;
8331;SDS011;4203;48.144;14.118;2023-11-21T14:03:24;1.77;;;1.67;;
8331;SDS011;4203;48.144;14.118;2023-11-21T14:06:05;2.67;;;2.47;;
8331;SDS011;4203;48.144;14.118;2023-11-21T14:08:40;2.55;;;2.33;;
8331;SDS011;4203;48.144;14.118;2023-11-21T14:11:08;1.65;;;1.55;;
8331;SDS011;4203;48.144;14.118;2023-11-21T14:13:36;1.70;;;1.60;;
8331;SDS011;4203;48.144;14.118;2023-11-21T14:16:10;1.85;;;1.75;;
8331;SDS011;4203;48.144;14.118;2023-11-21T14:18:39;1.50;;;1.50;;
8331;SDS011;4203;48.144;14.118;2023-11-21T14:21:17;1.60;;;1.50;;
8331;SDS011;4203;48.144;14.118;2023-11-21T14:23:46;1.90;;;1.80;;
8331;SDS011;4203;48.144;14.118;2023-11-21T14:26:13;1.60;;;1.50;;
8331;SDS011;4203;48.144;14.118;2023-11-21T14:28:42;2.10;;;1.90;;
8331;SDS011;4203;48.144;14.118;2023-11-21T14:31:09;3.20;;;2.08;;
8331;SDS011;4203;48.144;14.118;2023-11-21T14:33:42;1.60;;;1.50;;
8331;SDS011;4203;48.144;14.118;2023-11-21T14:36:10;1.60;;;1.50;;
8331;SDS011;4203;48.144;14.118;2023-11-21T14:38:37;1.98;;;1.80;;
8331;SDS011;4203;48.144;14.118;2023-11-21T14:41:07;2.00;;;1.75;;
8331;SDS011;4203;48.144;14.118;2023-11-21T14:43:36;2.80;;;2.05;;
8331;SDS011;4203;48.144;14.118;2023-11-21T14:46:04;2.63;;;1.83;;
8331;SDS011;4203;48.144;14.118;2023-11-21T14:48:35;1.77;;;1.67;;
8331;SDS011;4203;48.144;14.118;2023-11-21T14:51:08;2.03;;;1.83;;
8331;SDS011;4203;48.144;14.118;2023-11-21T14:53:52;1.98;;;1.83;;
8331;SDS011;4203;48.144;14.118;2023-11-21T14:56:21;2.00;;;1.90;;
8331;SDS011;4203;48.144;14.118;2023-11-21T14:58:52;1.75;;;1.65;;
8331;SDS011;4203;48.144;14.118;2023-11-21T15:01:21;2.13;;;1.88;;
8331;SDS011;4203;48.144;14.118;2023-11-21T15:04:01;2.20;;;2.00;;
8331;SDS011;4203;48.144;14.118;2023-11-21T15:06:31;3.20;;;2.00;;
8331;SDS011;4203;48.144;14.118;2023-11-21T15:08:57;2.67;;;2.47;;
8331;SDS011;4203;48.144;14.118;2023-11-21T15:11:43;9.07;;;5.70;;
8331;SDS011;4203;48.144;14.118;2023-11-21T15:14:12;7.35;;;6.03;;
8331;SDS011;4203;48.144;14.118;2023-11-21T15:16:46;7.18;;;4.65;;
8331;SDS011;4203;48.144;14.118;2023-11-21T15:19:17;2.70;;;2.50;;